Time;durP1;ratioP1;P1;durP2;ratioP2;P2;SDS_P1;SDS_P2;PMS_P1;PMS_P2;Temp;Humidity;BMP_temperature;BMP_pressure;BME280_temperature;BME280_humidity;BME280_pressure;Samples;Min_cycle;Max_cycle;Signal;HPM_P1;HPM_P2
2022/11/04 00:01:50;;;;;;;2.85;1.10;;;;;;;9.35;100.00;98721.94;5075611;28;20028;-84
2022/11/04 00:04:18;;;;;;;2.20;0.90;;;;;;;9.37;100.00;98727.00;5056812;28;20500;-86
2022/11/04 00:06:44;;;;;;;2.70;1.05;;;;;;;9.37;100.00;98722.38;5056886;28;20090;-82
2022/11/04 00:09:13;;;;;;;2.50;0.90;;;;;;;9.39;99.71;98714.63;5057371;28;20112;-84
2022/11/04 00:14:23;;;;;;;3.38;0.85;;;;;;;9.32;99.71;98723.44;5074386;28;20063;-83
2022/11/04 00:28:41;;;;;;;1.38;0.60;;;;;;;9.31;98.73;98742.81;5074392;28;20027;-83
2022/11/04 00:30:31;;;;;;;2.40;0.90;;;;;;;9.22;97.82;98748.47;5073676;28;20039;-80
2022/11/04 00:35:48;;;;;;;3.45;1.10;;;;;;;9.24;97.37;98756.28;5073637;28;20499;-81
2022/11/04 00:38:14;;;;;;;2.42;0.90;;;;;;;9.25;97.43;98755.13;5073116;28;20033;-81
2022/11/04 00:40:40;;;;;;;2.15;0.70;;;;;;;9.20;96.82;98758.91;5073208;28;20058;-80
2022/11/04 00:43:05;;;;;;;;;;;;;;;9.24;97.13;98775.28;5055154;28;20114;-81
2022/11/04 00:45:31;;;;;;;3.47;0.80;;;;;;;9.27;97.10;98775.34;5072890;28;20387;-82
2022/11/04 00:47:56;;;;;;;2.33;0.95;;;;;;;9.26;97.33;98771.06;5073419;28;20028;-82
2022/11/04 00:50:21;;;;;;;1.97;0.73;;;;;;;9.28;97.03;98770.72;5073522;28;20111;-82
2022/11/04 00:52:47;;;;;;;5.63;0.93;;;;;;;9.27;97.01;98775.34;5072767;28;20025;-82
2022/11/04 00:55:12;;;;;;;1.80;0.60;;;;;;;9.25;97.32;98774.94;5055234;28;20051;-81
2022/11/04 00:57:38;;;;;;;2.13;0.70;;;;;;;9.25;97.48;98783.09;5055478;28;20024;-84
2022/11/04 01:00:04;;;;;;;1.30;0.52;;;;;;;9.23;97.34;98792.69;5073558;28;20060;-81
2022/11/04 01:02:30;;;;;;;1.73;0.60;;;;;;;9.25;97.56;98785.78;5073499;28;20514;-81
2022/11/04 01:04:55;;;;;;;3.13;0.90;;;;;;;9.22;97.59;98794.63;5073078;28;20068;-82
2022/11/04 01:07:21;;;;;;;2.17;0.95;;;;;;;9.22;97.61;98791.91;5054969;28;20652;-81
2022/11/04 01:09:48;;;;;;;2.30;0.90;;;;;;;9.21;98.06;98793.06;5052869;28;20036;-81
2022/11/04 01:12:13;;;;;;;2.20;0.90;;;;;;;9.24;97.92;98800.53;5052934;28;20039;-84
2022/11/04 01:14:38;;;;;;;2.80;1.20;;;;;;;9.19;98.27;98792.63;5053339;28;20029;-82
2022/11/04 01:17:05;;;;;;;2.75;1.10;;;;;;;9.23;98.25;98798.13;5052746;28;20033;-82
2022/11/04 01:19:31;;;;;;;3.53;1.10;;;;;;;9.20;98.69;98807.00;5053210;28;20029;-84
2022/11/04 01:21:56;;;;;;;5.20;1.67;;;;;;;9.12;100.00;98810.72;5053237;28;20547;-83
2022/11/04 01:24:21;;;;;;;2.83;1.17;;;;;;;9.03;100.00;98819.06;5035563;28;20268;-83
2022/11/04 01:26:47;;;;;;;3.30;1.30;;;;;;;8.92;100.00;98824.28;5035632;28;20028;-84
2022/11/04 01:29:12;;;;;;;3.67;1.40;;;;;;;8.88;100.00;98822.59;5053342;28;20029;-82
2022/11/04 01:31:38;;;;;;;3.20;1.50;;;;;;;8.91;100.00;98830.84;5053128;28;20033;-82
2022/11/04 01:34:03;;;;;;;3.35;1.30;;;;;;;8.85;100.00;98821.41;5039180;28;20644;-83
2022/11/04 01:36:28;;;;;;;3.20;1.33;;;;;;;8.85;100.00;98832.25;5054213;28;20080;-84
2022/11/04 01:38:55;;;;;;;3.33;1.30;;;;;;;8.86;100.00;98838.47;5035550;28;20025;-81
2022/11/04 01:41:24;;;;;;;3.65;1.80;;;;;;;8.91;100.00;98832.78;5053143;28;20025;-82
2022/11/04 01:43:52;;;;;;;3.90;1.42;;;;;;;8.96;100.00;98837.94;5035392;28;20179;-81
2022/11/04 01:46:31;;;;;;;2.95;1.15;;;;;;;8.94;100.00;98832.06;5035059;28;20056;-83
2022/11/04 01:49:34;;;;;;;4.97;2.20;;;;;;;8.96;100.00;98843.34;5053475;28;20028;-84
2022/11/04 01:52:25;;;;;;;3.40;1.40;;;;;;;8.98;100.00;98851.94;5052798;28;20037;-84
2022/11/04 01:54:54;;;;;;;3.47;1.50;;;;;;;9.04;100.00;98853.22;5035334;28;20029;-81
2022/11/04 01:57:29;;;;;;;5.32;1.83;;;;;;;8.99;100.00;98859.72;5057498;28;20247;-82
2022/11/04 02:00:00;;;;;;;2.80;1.20;;;;;;;9.04;100.00;98856.72;5038992;28;20025;-83
2022/11/04 02:02:25;;;;;;;4.38;1.85;;;;;;;9.09;100.00;98858.41;5057651;28;20033;-82
2022/11/04 02:04:51;;;;;;;5.78;1.60;;;;;;;9.06;100.00;98859.09;5038875;28;20029;-82
2022/11/04 02:07:16;;;;;;;4.43;1.88;;;;;;;9.04;100.00;98854.00;5056462;28;20136;-81
2022/11/04 02:09:43;;;;;;;4.68;1.63;;;;;;;9.07;100.00;98854.44;5056725;28;20389;-80
2022/11/04 02:14:54;;;;;;;4.53;1.67;;;;;;;9.02;100.00;98850.88;5056429;28;19920;-80
2022/11/04 02:17:46;;;;;;;4.38;1.42;;;;;;;9.01;100.00;98853.94;5056106;28;20056;-80
2022/11/04 02:20:23;;;;;;;7.55;2.05;;;;;;;9.00;100.00;98855.06;5037963;28;20025;-80
2022/11/04 02:23:04;;;;;;;8.02;2.10;;;;;;;8.98;100.00;98850.00;5055774;28;20025;-79
2022/11/04 02:25:45;;;;;;;3.75;1.50;;;;;;;8.92;100.00;98858.78;5055869;28;20095;-79
2022/11/04 02:28:42;;;;;;;3.13;1.60;;;;;;;8.88;100.00;98857.91;5055572;28;20025;-80
2022/11/04 02:31:22;;;;;;;4.97;2.00;;;;;;;8.83;100.00;98855.47;5055853;28;20025;-79
2022/11/04 02:34:00;;;;;;;4.25;1.50;;;;;;;8.79;100.00;98855.38;5056029;28;20033;-79
2022/11/04 02:36:45;;;;;;;3.83;1.40;;;;;;;8.80;100.00;98861.59;5056370;28;20025;-79
2022/11/04 02:39:25;;;;;;;4.00;1.70;;;;;;;8.78;100.00;98855.75;5055873;28;20032;-78
2022/11/04 02:42:08;;;;;;;3.15;1.30;;;;;;;8.81;100.00;98857.75;5055362;28;20056;-80
2022/11/04 02:44:39;;;;;;;3.88;1.50;;;;;;;8.77;100.00;98849.53;5055523;28;20083;-80
2022/11/04 02:47:14;;;;;;;3.72;1.83;;;;;;;8.72;100.00;98845.16;5036994;28;20036;-78
2022/11/04 02:49:46;;;;;;;4.53;1.30;;;;;;;8.73;100.00;98849.47;5055262;28;20025;-78
2022/11/04 02:52:18;;;;;;;2.95;1.15;;;;;;;8.71;100.00;98848.22;5055359;28;20032;-78
2022/11/04 02:55:15;;;;;;;3.30;1.08;;;;;;;8.69;100.00;98845.84;5055371;28;20078;-79
2022/11/04 02:57:41;;;;;;;2.50;1.00;;;;;;;8.69;100.00;98851.28;5048704;28;20038;-79
2022/11/04 03:00:09;;;;;;;4.07;1.42;;;;;;;8.64;100.00;98848.84;5054898;28;20035;-79
2022/11/04 03:02:46;;;;;;;3.58;1.17;;;;;;;8.64;100.00;98853.47;5054976;28;20091;-78
2022/11/04 03:05:14;;;;;;;;;;;;;;;8.62;100.00;98853.06;5037286;28;20032;-79
2022/11/04 03:07:42;;;;;;;3.88;1.00;;;;;;;8.61;100.00;98854.97;5053863;28;20007;-78
2022/11/04 03:10:15;;;;;;;4.47;0.90;;;;;;;8.58;100.00;98850.25;5055074;28;20100;-79
2022/11/04 03:12:59;;;;;;;5.03;1.23;;;;;;;8.58;100.00;98844.84;5054868;28;20116;-79
2022/11/04 03:15:30;;;;;;;3.50;1.13;;;;;;;8.58;100.00;98854.91;5037373;28;20033;-78
2022/11/04 03:18:17;;;;;;;3.92;0.90;;;;;;;8.59;99.89;98856.47;5054693;28;20039;-77
2022/11/04 03:20:45;;;;;;;3.38;1.38;;;;;;;8.57;99.68;98856.84;5054612;28;20021;-77
2022/11/04 03:23:11;;;;;;;7.85;0.80;;;;;;;8.56;99.22;98855.22;5054834;28;20031;-77
2022/11/04 03:25:40;;;;;;;;;;;;;;;8.56;99.23;98851.72;5054826;28;20025;-78
2022/11/04 03:28:21;;;;;;;3.22;0.90;;;;;;;8.52;99.29;98851.66;5054460;28;20289;-77
2022/11/04 03:30:50;;;;;;;4.13;0.80;;;;;;;8.52;99.06;98857.06;5054419;28;20025;-77
2022/11/04 03:33:39;;;;;;;2.67;1.30;;;;;;;8.48;99.07;98856.22;5054433;28;20021;-77
2022/11/04 03:36:07;;;;;;;3.35;1.30;;;;;;;8.44;99.24;98845.28;5054376;28;20025;-77
2022/11/04 03:38:33;;;;;;;6.05;0.80;;;;;;;8.45;99.24;98856.91;5054172;28;20035;-78
2022/11/04 03:41:01;;;;;;;;;;;;;;;8.41;99.11;98858.75;5053609;28;20106;-78
2022/11/04 03:43:28;;;;;;;3.15;0.80;;;;;;;8.39;99.19;98869.16;5054260;28;20075;-78
2022/11/04 03:45:54;;;;;;;5.18;0.93;;;;;;;8.36;99.22;98867.13;5054371;28;20036;-77
2022/11/04 03:48:20;;;;;;;3.42;0.80;;;;;;;8.36;99.22;98872.56;5036186;28;20101;-78
2022/11/04 03:50:47;;;;;;;;;;;;;;;8.32;99.17;98877.88;5054847;28;20362;-78
2022/11/04 03:53:14;;;;;;;6.10;1.50;;;;;;;8.32;99.06;98872.44;5053869;28;20293;-77
2022/11/04 03:56:23;;;;;;;3.95;1.13;;;;;;;8.28;99.28;98877.00;5054181;28;20039;-78
2022/11/04 03:58:55;;;;;;;3.22;0.57;;;;;;;8.28;99.10;98885.16;5034212;28;20111;-78
2022/11/04 04:01:20;;;;;;;3.28;1.27;;;;;;;8.29;98.92;98883.22;5053907;28;20068;-78
2022/11/04 04:03:55;;;;;;;3.13;0.90;;;;;;;8.28;98.91;98884.34;5053956;28;20430;-77
2022/11/04 04:06:28;;;;;;;4.88;1.05;;;;;;;8.26;99.25;98892.06;5045119;28;20049;-77
2022/11/04 04:09:10;;;;;;;3.25;1.02;;;;;;;8.20;99.41;98893.44;5073727;28;20032;-77
2022/11/04 04:11:43;;;;;;;3.30;1.15;;;;;;;8.16;99.69;98893.34;5073640;28;20024;-78
2022/11/04 04:14:39;;;;;;;3.20;1.05;;;;;;;8.15;99.64;98887.13;5073719;28;20016;-78
2022/11/04 04:17:38;;;;;;;3.33;1.10;;;;;;;8.12;99.71;98887.03;5073698;28;20017;-78
2022/11/04 04:20:11;;;;;;;18.52;1.65;;;;;;;8.10;99.67;98879.25;5062292;28;20496;-77
2022/11/04 04:28:47;;;;;;;3.90;1.20;;;;;;;8.02;99.91;98887.53;5073721;28;20039;-78
2022/11/04 04:31:48;;;;;;;4.30;1.10;;;;;;;8.02;99.87;98887.53;5054950;28;20558;-78
2022/11/04 04:34:03;;;;;;;4.25;1.13;;;;;;;8.01;100.00;98885.97;5072891;28;20033;-77
2022/11/04 04:36:31;;;;;;;4.85;1.20;;;;;;;8.01;100.00;98884.03;5073544;28;20028;-80
2022/11/04 04:47:23;;;;;;;8.77;1.75;;;;;;;8.00;100.00;98885.19;5073282;28;20059;-78
2022/11/04 04:49:56;;;;;;;7.13;1.52;;;;;;;7.98;100.00;98897.50;5073058;28;20338;-78
2022/11/04 04:52:24;;;;;;;3.80;1.42;;;;;;;7.99;99.92;98904.50;5072870;28;20052;-79
2022/11/04 04:54:49;;;;;;;3.38;1.05;;;;;;;8.01;99.42;98907.66;5054872;28;20069;-80
2022/11/04 04:57:15;;;;;;;4.20;1.70;;;;;;;7.99;99.54;98908.00;5072981;28;20103;-79
2022/11/04 04:59:40;;;;;;;4.27;1.20;;;;;;;7.97;99.38;98909.50;5073324;28;20031;-79
2022/11/04 05:02:05;;;;;;;6.97;1.47;;;;;;;7.97;99.64;98912.19;5055071;28;20036;-82
2022/11/04 05:04:31;;;;;;;3.60;1.60;;;;;;;7.97;99.36;98912.19;5073618;28;20267;-82
2022/11/04 05:06:56;;;;;;;4.37;1.17;;;;;;;7.93;99.40;98917.53;5058758;28;20056;-79
2022/11/04 05:09:21;;;;;;;4.30;1.20;;;;;;;7.93;99.00;98928.38;5035334;28;20045;-79
2022/11/04 05:11:48;;;;;;;3.60;1.30;;;;;;;7.91;99.29;98917.09;5053434;28;20317;-82
2022/11/04 05:14:14;;;;;;;7.82;1.95;;;;;;;7.89;99.33;98927.47;5053060;28;20036;-80
2022/11/04 05:16:39;;;;;;;4.60;1.30;;;;;;;7.87;99.00;98929.72;5035010;28;20029;-81
2022/11/04 05:19:05;;;;;;;6.83;1.20;;;;;;;7.87;99.00;98929.72;5053715;28;20034;-81
2022/11/04 05:21:30;;;;;;;3.03;1.30;;;;;;;7.84;99.02;98920.38;5035299;28;20493;-81
2022/11/04 05:23:55;;;;;;;3.27;1.07;;;;;;;7.84;99.14;98922.31;5035382;28;20056;-80
2022/11/04 05:26:21;;;;;;;2.70;1.00;;;;;;;7.85;98.87;98932.00;5053124;28;20116;-81
2022/11/04 05:28:46;;;;;;;8.80;1.03;;;;;;;7.82;98.57;98927.28;5053152;28;20099;-81
2022/11/04 05:31:12;;;;;;;6.00;1.10;;;;;;;7.83;98.49;98926.16;5052473;28;20628;-82
2022/11/04 05:33:38;;;;;;;4.10;2.03;;;;;;;7.85;98.38;98934.72;5053340;28;20083;-81
2022/11/04 05:36:08;;;;;;;3.25;1.15;;;;;;;7.85;98.38;98935.50;5053093;28;20429;-81
2022/11/04 05:38:34;;;;;;;5.35;1.00;;;;;;;7.86;98.34;98955.25;5052576;28;20111;-81
2022/11/04 05:41:00;;;;;;;3.50;1.00;;;;;;;7.88;98.27;98941.38;5034831;28;20044;-81
2022/11/04 05:43:25;;;;;;;7.88;1.77;;;;;;;7.85;98.41;98948.28;5035231;28;20025;-81
2022/11/04 05:45:50;;;;;;;3.47;1.10;;;;;;;7.83;98.77;98951.31;5052953;28;20136;-80
2022/11/04 05:48:16;;;;;;;5.57;1.17;;;;;;;7.83;99.04;98951.31;5034830;28;20021;-80
2022/11/04 05:50:41;;;;;;;5.70;2.20;;;;;;;7.81;99.08;98953.59;5052435;28;20033;-80
2022/11/04 05:53:07;;;;;;;2.38;0.95;;;;;;;7.82;98.80;98951.66;5034365;28;20103;-79
2022/11/04 05:55:32;;;;;;;2.42;0.95;;;;;;;7.80;99.04;98962.06;5052343;28;20449;-80
2022/11/04 05:57:58;;;;;;;5.40;1.17;;;;;;;7.75;99.14;98959.59;5052286;28;20029;-80
2022/11/04 06:00:25;;;;;;;3.70;0.77;;;;;;;7.75;99.00;98973.16;5052502;28;20029;-81
2022/11/04 06:02:50;;;;;;;2.50;0.70;;;;;;;7.72;99.16;98971.91;5052554;28;20036;-81
2022/11/04 06:05:16;;;;;;;2.83;0.90;;;;;;;7.67;99.04;98972.16;5052969;28;20076;-80
2022/11/04 06:07:41;;;;;;;4.18;1.38;;;;;;;7.68;99.34;98975.66;5035438;28;20045;-80
2022/11/04 06:10:07;;;;;;;4.67;1.00;;;;;;;7.64;99.15;98975.53;5053104;28;20108;-81
2022/11/04 06:12:32;;;;;;;6.00;2.05;;;;;;;7.65;99.26;98977.13;5034535;28;20025;-81
2022/11/04 06:14:59;;;;;;;5.13;1.00;;;;;;;7.66;99.14;98977.91;5034358;28;20029;-81
2022/11/04 06:17:25;;;;;;;2.85;1.10;;;;;;;7.66;99.05;98980.63;5052858;28;20315;-80
2022/11/04 06:19:50;;;;;;;2.60;0.90;;;;;;;7.68;99.11;98986.47;5052592;28;20037;-82
2022/11/04 06:22:18;;;;;;;3.60;1.17;;;;;;;7.75;98.37;98987.50;5034754;28;20075;-80
2022/11/04 06:24:44;;;;;;;6.63;1.45;;;;;;;7.78;98.23;98992.22;5052203;28;20836;-82
2022/11/04 06:27:09;;;;;;;;;;;;;;;7.81;97.86;98990.75;5052044;28;20029;-82
2022/11/04 06:29:38;;;;;;;4.28;1.02;;;;;;;7.83;97.56;98986.56;5034032;28;20358;-81
2022/11/04 06:32:05;;;;;;;4.30;0.80;;;;;;;7.88;97.65;98979.31;5052204;28;20030;-81
2022/11/04 06:34:30;;;;;;;;;;;;;;;7.90;97.50;98988.69;5052428;28;20035;-82
2022/11/04 06:36:55;;;;;;;3.60;1.07;;;;;;;7.94;97.03;98989.56;5051772;28;19909;-81
2022/11/04 06:39:21;;;;;;;3.50;1.08;;;;;;;7.94;96.54;98997.72;5051607;28;20285;-80
2022/11/04 06:41:46;;;;;;;2.00;0.63;;;;;;;7.95;95.88;99004.72;5051968;28;20029;-81
2022/11/04 06:44:11;;;;;;;6.65;1.52;;;;;;;7.98;96.26;99001.31;5054830;28;20033;-81
2022/11/04 06:46:39;;;;;;;5.73;1.07;;;;;;;8.00;96.13;99015.31;5055174;28;20032;-81
2022/11/04 06:49:06;;;;;;;7.70;1.35;;;;;;;7.95;95.68;99018.25;5055689;28;20477;-82
2022/11/04 06:51:32;;;;;;;3.45;0.82;;;;;;;7.96;95.96;99024.47;5056328;28;20024;-82
2022/11/04 06:53:58;;;;;;;5.20;1.25;;;;;;;7.99;95.96;99024.56;5055993;28;20036;-81
2022/11/04 06:56:24;;;;;;;5.47;1.20;;;;;;;8.03;95.47;99025.44;5038549;28;20040;-81
2022/11/04 06:58:52;;;;;;;4.50;0.95;;;;;;;8.02;94.95;99033.94;5056178;28;20382;-80
2022/11/04 07:01:20;;;;;;;3.70;1.08;;;;;;;8.17;94.76;99030.50;5021159;28;20033;-82
2022/11/04 07:03:55;;;;;;;3.05;1.20;;;;;;;8.13;94.49;99035.03;5055865;28;20021;-81
2022/11/04 07:06:21;;;;;;;6.70;2.13;;;;;;;8.15;94.59;99030.06;5062422;28;20052;-81
2022/11/04 07:08:48;;;;;;;6.72;1.77;;;;;;;8.18;94.24;99034.00;5075555;28;20025;-82
2022/11/04 07:11:14;;;;;;;4.80;0.90;;;;;;;8.35;93.70;99033.72;5076908;28;20036;-82
2022/11/04 07:13:39;;;;;;;4.38;1.10;;;;;;;8.32;93.71;99037.09;5060613;28;20117;-81
2022/11/04 07:16:06;;;;;;;6.55;1.33;;;;;;;8.33;94.09;99041.41;5080436;28;20040;-82
2022/11/04 07:18:31;;;;;;;3.20;0.85;;;;;;;8.38;93.10;99046.59;5075886;28;20465;-81
2022/11/04 07:20:57;;;;;;;2.97;1.15;;;;;;;8.44;93.45;99048.72;5075868;28;20059;-81
2022/11/04 07:23:22;;;;;;;5.28;1.42;;;;;;;8.40;92.93;99053.28;5077958;28;20025;-80
2022/11/04 07:25:48;;;;;;;4.77;1.27;;;;;;;8.53;92.34;99059.41;5063105;28;20500;-81
2022/11/04 07:28:15;;;;;;;9.18;1.30;;;;;;;8.67;92.65;99057.09;5081400;28;20032;-81
2022/11/04 07:30:42;;;;;;;3.67;1.25;;;;;;;8.68;92.84;99063.31;5080436;28;20029;-81
2022/11/04 07:33:07;;;;;;;2.83;0.88;;;;;;;8.84;91.62;99061.41;5076839;28;20037;-80
2022/11/04 07:35:33;;;;;;;2.93;1.10;;;;;;;8.85;90.81;99062.97;5077238;28;20380;-82
2022/11/04 07:37:58;;;;;;;3.13;1.40;;;;;;;8.90;91.98;99072.78;5057472;28;20020;-80
2022/11/04 07:40:24;;;;;;;3.65;0.90;;;;;;;9.14;89.06;99066.44;5058386;28;20101;-81
2022/11/04 07:42:49;;;;;;;8.00;1.33;;;;;;;8.90;89.75;99068.19;5076163;28;20077;-81
2022/11/04 07:45:15;;;;;;;4.90;1.20;;;;;;;8.83;90.20;99072.63;5076361;28;20051;-81
2022/11/04 07:47:40;;;;;;;5.43;1.60;;;;;;;8.88;90.85;99075.06;5076275;28;20060;-81
2022/11/04 07:50:06;;;;;;;1.58;0.80;;;;;;;8.81;90.40;99075.69;5076800;28;20031;-81
2022/11/04 07:52:31;;;;;;;8.30;2.40;;;;;;;9.16;89.14;99083.94;5076689;28;20036;-80
2022/11/04 07:54:57;;;;;;;3.37;1.20;;;;;;;9.13;89.35;99092.81;5076361;28;20117;-81
2022/11/04 07:57:22;;;;;;;5.50;1.30;;;;;;;9.09;89.10;99091.13;5077616;28;20047;-81
2022/11/04 07:59:47;;;;;;;9.77;1.50;;;;;;;9.12;88.90;99096.66;5058779;28;20055;-80
2022/11/04 08:02:14;;;;;;;20.70;2.03;;;;;;;9.34;89.62;99109.63;5081865;28;20263;-81
2022/11/04 08:04:40;;;;;;;3.25;1.25;;;;;;;9.40;87.93;99109.34;5079312;28;20493;-80
2022/11/04 08:07:08;;;;;;;3.80;1.10;;;;;;;9.38;88.18;99114.34;5079133;28;20056;-81
2022/11/04 08:09:35;;;;;;;4.70;1.55;;;;;;;9.38;89.97;99117.84;5067222;28;20033;-80
2022/11/04 08:12:00;;;;;;;2.20;0.93;;;;;;;9.20;91.91;99120.13;5083797;28;20024;-80
2022/11/04 08:14:26;;;;;;;3.20;1.30;;;;;;;9.08;92.69;99120.22;5077826;28;20032;-81
2022/11/04 08:16:51;;;;;;;2.93;1.03;;;;;;;9.05;93.05;99118.19;5060270;28;20040;-82
2022/11/04 08:19:16;;;;;;;3.60;1.30;;;;;;;9.10;93.68;99115.22;5078750;28;20259;-81
2022/11/04 08:21:42;;;;;;;4.63;1.10;;;;;;;9.13;92.43;99113.75;5080118;28;20404;-82
2022/11/04 08:24:07;;;;;;;4.50;1.27;;;;;;;9.17;93.65;99103.75;5077809;28;20067;-83
2022/11/04 08:26:32;;;;;;;7.30;1.10;;;;;;;9.30;91.61;99108.75;5059788;28;20320;-82
2022/11/04 08:28:59;;;;;;;4.20;1.30;;;;;;;9.32;91.58;99114.63;5059176;28;20298;-82
2022/11/04 08:31:27;;;;;;;3.08;0.98;;;;;;;9.44;92.39;99112.97;5078079;28;20044;-81
2022/11/04 08:33:54;;;;;;;3.40;0.93;;;;;;;9.38;91.29;99119.78;5077577;28;20029;-81
2022/11/04 08:36:29;;;;;;;3.45;1.10;;;;;;;9.32;92.02;99116.56;5079116;28;20103;-82
2022/11/04 08:38:55;;;;;;;6.82;2.17;;;;;;;9.07;92.42;99110.50;5079610;28;20036;-82
2022/11/04 08:41:26;;;;;;;;;;;;;;;8.98;93.62;99113.38;5061100;28;20045;-82
2022/11/04 08:43:52;;;;;;;4.40;1.10;;;;;;;8.92;92.57;99116.69;5075183;28;20484;-83
2022/11/04 08:46:18;;;;;;;3.65;1.02;;;;;;;8.89;93.43;99120.06;5076852;28;20485;-82
2022/11/04 08:48:44;;;;;;;4.43;1.20;;;;;;;8.95;93.72;99124.13;5074878;28;20028;-83
2022/11/04 08:51:17;;;;;;;5.07;1.10;;;;;;;8.94;92.97;99133.41;5078300;28;20054;-82
2022/11/04 08:53:42;;;;;;;4.60;1.15;;;;;;;9.00;92.20;99132.81;5078084;28;20024;-82
2022/11/04 08:56:29;;;;;;;2.70;1.25;;;;;;;8.96;92.39;99142.78;5078404;28;20095;-82
2022/11/04 08:58:58;;;;;;;3.95;1.27;;;;;;;8.95;93.31;99135.78;5058798;28;20028;-84
2022/11/04 09:01:27;;;;;;;5.35;1.17;;;;;;;8.91;94.39;99139.56;5076953;28;20056;-83
2022/11/04 09:03:52;;;;;;;6.90;1.00;;;;;;;8.87;95.45;99136.72;5078413;28;20056;-83
2022/11/04 09:06:28;;;;;;;3.20;1.27;;;;;;;8.81;96.36;99135.41;5076397;28;20087;-82
2022/11/04 09:08:56;;;;;;;5.45;1.15;;;;;;;8.84;97.29;99144.75;5059126;28;20648;-83
2022/11/04 09:11:22;;;;;;;5.10;1.15;;;;;;;9.02;97.05;99141.41;5077469;28;20035;-82
2022/11/04 09:13:47;;;;;;;7.50;1.20;;;;;;;9.10;95.58;99145.09;5077621;28;20080;-82
2022/11/04 09:16:14;;;;;;;2.53;0.90;;;;;;;9.28;95.93;99140.13;5077236;28;20040;-82
2022/11/04 09:18:39;;;;;;;6.68;1.83;;;;;;;9.17;96.47;99133.63;5058395;28;20290;-82
2022/11/04 09:21:07;;;;;;;5.50;1.20;;;;;;;9.27;96.50;99125.75;5058145;28;20028;-83
2022/11/04 09:23:35;;;;;;;2.58;0.88;;;;;;;9.37;96.61;99134.50;5075466;28;20032;-82
2022/11/04 09:26:09;;;;;;;4.80;1.23;;;;;;;9.39;96.37;99138.44;5075386;28;20028;-83
2022/11/04 09:28:35;;;;;;;4.13;1.08;;;;;;;9.46;96.04;99148.72;5074675;28;20158;-82
2022/11/04 09:31:07;;;;;;;7.43;3.00;;;;;;;9.47;94.55;99150.31;5057102;28;20032;-81
2022/11/04 09:33:32;;;;;;;6.10;1.40;;;;;;;9.39;94.28;99153.97;5074170;28;20039;-82
2022/11/04 09:35:58;;;;;;;;;;;;;;;9.34;94.55;99146.88;5074372;28;20034;-82
2022/11/04 09:38:24;;;;;;;5.88;1.50;;;;;;;9.37;94.38;99142.66;5076512;28;20007;-82
2022/11/04 09:40:50;;;;;;;;;;;;;;;9.51;94.34;99141.09;5074158;28;20482;-81
2022/11/04 09:43:37;;;;;;;5.20;1.50;;;;;;;9.46;93.89;99135.13;5074557;28;19919;-81
2022/11/04 09:46:03;;;;;;;7.60;1.80;;;;;;;9.43;94.90;99144.78;5072921;28;20024;-82
2022/11/04 09:48:38;;;;;;;4.45;1.05;;;;;;;9.74;92.99;99145.88;5074242;28;20486;-80
2022/11/04 09:51:06;;;;;;;3.95;1.05;;;;;;;9.47;93.24;99142.16;5074045;28;20385;-82
2022/11/04 09:53:38;;;;;;;4.25;1.17;;;;;;;9.53;93.35;99159.75;5039956;28;20024;-80
2022/11/04 09:56:12;;;;;;;3.28;1.20;;;;;;;9.59;92.52;99161.88;5074830;28;20039;-80
2022/11/04 09:58:39;;;;;;;5.18;1.00;;;;;;;9.50;92.79;99161.25;5074783;28;20020;-80
2022/11/04 10:01:26;;;;;;;2.58;1.00;;;;;;;9.60;93.29;99159.94;5073023;28;20024;-81
2022/11/04 10:04:10;;;;;;;2.40;0.90;;;;;;;9.85;91.82;99164.03;5073884;28;20028;-81
2022/11/04 10:06:55;;;;;;;5.80;1.02;;;;;;;9.83;92.37;99151.94;5076174;28;20048;-81
2022/11/04 10:09:42;;;;;;;5.50;1.50;;;;;;;9.98;91.93;99150.34;5076279;28;20032;-81
2022/11/04 10:12:37;;;;;;;3.33;1.10;;;;;;;10.15;91.71;99150.75;5056234;28;20028;-81
2022/11/04 10:15:38;;;;;;;4.85;1.08;;;;;;;10.28;89.99;99159.63;5073817;28;20024;-81
2022/11/04 10:18:37;;;;;;;5.45;1.05;;;;;;;10.37;90.53;99160.19;5034454;28;20040;-82
2022/11/04 10:21:38;;;;;;;3.40;0.80;;;;;;;10.47;88.66;99167.81;5077523;28;20024;-81
2022/11/04 10:24:38;;;;;;;3.67;1.00;;;;;;;10.69;86.51;99168.25;5071308;28;20044;-80
2022/11/04 10:27:12;;;;;;;7.18;1.42;;;;;;;10.91;85.85;99166.72;5056103;28;20033;-81
2022/11/04 10:29:42;;;;;;;3.30;0.70;;;;;;;10.77;83.32;99161.81;5077066;28;20044;-81
2022/11/04 10:32:22;;;;;;;4.82;1.00;;;;;;;10.68;83.87;99147.59;5076256;28;20020;-83
2022/11/04 10:34:57;;;;;;;6.53;0.73;;;;;;;10.64;84.79;99146.75;5059550;28;20035;-80
2022/11/04 10:37:25;;;;;;;4.50;1.20;;;;;;;10.68;85.30;99155.78;5058685;28;20069;-82
2022/11/04 10:39:58;;;;;;;3.40;1.27;;;;;;;10.66;84.64;99164.31;5076620;28;20086;-81
2022/11/04 10:42:23;;;;;;;5.72;1.00;;;;;;;10.55;84.87;99174.97;5076543;28;20027;-81
2022/11/04 10:44:52;;;;;;;9.33;1.50;;;;;;;10.53;85.04;99177.25;5076389;28;20028;-82
2022/11/04 10:47:45;;;;;;;9.85;2.42;;;;;;;10.53;84.63;99185.41;5057883;28;20310;-82
2022/11/04 10:50:10;;;;;;;5.50;1.00;;;;;;;10.52;84.23;99191.22;5077428;28;20040;-82
2022/11/04 10:52:36;;;;;;;1.97;0.70;;;;;;;10.50;84.46;99186.13;5058759;28;20542;-81
2022/11/04 10:55:02;;;;;;;;;;;;;;;10.58;84.73;99181.63;5058879;28;20079;-81
2022/11/04 10:57:28;;;;;;;5.32;1.30;;;;;;;10.58;84.75;99180.81;5075890;28;19952;-82
2022/11/04 11:00:04;;;;;;;3.22;0.95;;;;;;;10.58;84.67;99189.00;5058049;28;20056;-81
2022/11/04 11:02:35;;;;;;;4.22;1.23;;;;;;;10.58;85.26;99206.13;5075738;28;20051;-81
2022/11/04 11:05:16;;;;;;;2.65;1.10;;;;;;;10.68;84.81;99194.69;5075848;28;20035;-82
2022/11/04 11:07:43;;;;;;;2.20;0.85;;;;;;;10.75;84.45;99199.47;5075638;28;20063;-82
2022/11/04 11:10:18;;;;;;;3.67;0.80;;;;;;;10.76;83.23;99201.06;5075938;28;20028;-82
2022/11/04 11:13:03;;;;;;;6.15;1.48;;;;;;;10.85;83.92;99202.41;5075711;28;20044;-81
2022/11/04 11:15:35;;;;;;;3.55;0.90;;;;;;;10.84;82.78;99205.50;5076221;28;20040;-83
2022/11/04 11:18:07;;;;;;;4.50;0.90;;;;;;;10.84;83.80;99205.50;5076229;28;20027;-81
2022/11/04 11:20:36;;;;;;;4.25;1.83;;;;;;;10.91;83.58;99213.03;5075653;28;20071;-81
2022/11/04 11:23:08;;;;;;;4.80;0.88;;;;;;;10.99;83.88;99207.38;5075351;28;20029;-82
2022/11/04 11:25:41;;;;;;;6.55;0.98;;;;;;;10.97;82.34;99220.56;5057639;28;20021;-81
2022/11/04 11:28:19;;;;;;;5.43;1.00;;;;;;;11.01;82.50;99218.69;5074716;28;20382;-81
2022/11/04 11:30:45;;;;;;;3.22;0.82;;;;;;;10.99;82.09;99212.81;5075190;28;20508;-82
2022/11/04 11:33:26;;;;;;;5.38;0.85;;;;;;;10.98;81.10;99213.19;5076116;28;20036;-82
2022/11/04 11:36:13;;;;;;;4.45;0.80;;;;;;;11.18;80.87;99224.84;5057022;28;20036;-81
2022/11/04 11:38:53;;;;;;;4.03;0.88;;;;;;;11.01;80.51;99226.88;5069142;28;20028;-81
2022/11/04 11:41:27;;;;;;;5.15;0.90;;;;;;;11.07;80.69;99225.41;5075806;28;20021;-82
2022/11/04 11:43:54;;;;;;;6.28;1.17;;;;;;;11.15;81.11;99221.69;5076312;28;20427;-81
2022/11/04 11:46:42;;;;;;;4.07;1.40;;;;;;;11.04;80.27;99220.69;5075590;28;20213;-80
2022/11/04 11:49:22;;;;;;;3.10;1.17;;;;;;;11.06;80.90;99220.34;5076199;28;20046;-81
2022/11/04 11:51:49;;;;;;;3.55;1.13;;;;;;;11.11;80.78;99222.78;5074528;28;20035;-82
2022/11/04 11:54:22;;;;;;;5.75;1.05;;;;;;;11.14;81.18;99233.75;5074931;28;20017;-82
2022/11/04 11:56:53;;;;;;;3.22;1.00;;;;;;;11.20;80.44;99236.97;5056223;28;20021;-81
2022/11/04 11:59:34;;;;;;;6.47;1.73;;;;;;;11.11;79.82;99230.97;5074192;28;20427;-81
2022/11/04 12:02:17;;;;;;;7.95;2.30;;;;;;;11.13;80.90;99234.91;5073919;28;20111;-81
2022/11/04 12:04:45;;;;;;;4.75;2.22;;;;;;;11.19;80.41;99240.06;5073280;28;20032;-81
2022/11/04 12:07:30;;;;;;;3.58;1.10;;;;;;;11.10;80.62;99235.63;5055525;28;20044;-80
2022/11/04 12:10:08;;;;;;;4.95;1.20;;;;;;;11.44;80.70;99238.59;5055864;28;20039;-81
2022/11/04 12:13:00;;;;;;;5.03;1.20;;;;;;;11.11;81.82;99239.13;5073903;28;20028;-81
2022/11/04 12:15:37;;;;;;;2.15;0.70;;;;;;;11.10;81.41;99238.34;5072889;28;20044;-81
2022/11/04 12:18:25;;;;;;;4.18;1.08;;;;;;;11.03;82.00;99232.75;5055581;28;20551;-79
2022/11/04 12:21:18;;;;;;;4.85;1.15;;;;;;;10.99;82.50;99242.78;5055557;28;20089;-82
2022/11/04 12:23:55;;;;;;;4.15;1.10;;;;;;;11.02;82.56;99233.09;5073781;28;20079;-81
2022/11/04 12:26:23;;;;;;;6.78;2.05;;;;;;;10.93;83.41;99238.78;5074046;28;20036;-82
2022/11/04 12:29:01;;;;;;;5.78;1.80;;;;;;;10.94;83.42;99243.06;5055421;28;20021;-79
2022/11/04 12:31:39;;;;;;;2.75;1.17;;;;;;;10.87;82.74;99234.75;5073715;28;20035;-82
2022/11/04 12:34:25;;;;;;;3.78;1.70;;;;;;;10.81;83.12;99233.47;5073240;28;20028;-81